Medowie, Australia
Current Conditions -  °F | °C
As of 4:00 AM on Monday 22 Dec 2014 (Local Time) from YWLM Reporting Station
Clear Clear  
Wind Chill: 66°   Ceiling: Unl
Heat Index: 66°   Visibility: 6mi
Dew Point: 61°   Wind: 6mph
Humidity: 83%   Direction: 90°E
Pressure: 29.94"   Gusts: NA
Location:  32.74°S, 151.86°E
Report Text: YWLM 211700Z AUTO 09005KT 9999 // NCD 19/16 Q1014
Loading
Personal Weather Stations






























Interactive Weather Map New forecast layout! Learn more

10-Day Weather Forecast

Advertisements
Track Severe Weather on mobile